Ship Status Report: callsign FGD5178

sailwx.info

Track history (hours):
 
Tides and Currents Weather Stations Pressure Air Temp Water Temp Dewpoint Dewpoint Depression Visibility Wind Speed Wind Dir Waves Ship Positions

Callsign FGD5178 (name unknown)

Last reported at 2017-Oct-26 19:39 UTC. Time now 2017-Nov-18 01:23 UTC.
Position N 33°35' W 118°54'.
Warning: this ship's position is 22 days out of date.

Length 13 m.

Type: Pleasure craft. MMSI: 227405170.

Date/timePositionNaut miles runAvg speedWind from/ knotsBaromVisibWave heightAir tempDewpointWater temp
2017-Oct-26 19:39N 33°35' W 118°54'1 5.3
2017-Oct-26 19:30N 33°35' W 118°55'3 5.4
2017-Oct-26 19:00N 33°36' W 118°58'14 5.2
2017-Oct-26 16:21N 33°43' W 119°13'2 5.1
2017-Oct-26 16:00N 33°43' W 119°15'2 3.2
2017-Oct-26 15:25N 33°45' W 119°16'1 3.4
2017-Oct-26 14:59N 33°46' W 119°17'2 3.8
2017-Oct-26 14:30N 33°48' W 119°18'2 4.0
2017-Oct-26 13:53N 33°50' W 119°19'1 3.8
2017-Oct-26 13:30N 33°51' W 119°19'2 3.3
2017-Oct-26 13:00N 33°53' W 119°19'2 3.9
2017-Oct-26 12:29N 33°54' W 119°21'2 5.0
2017-Oct-26 12:00N 33°56' W 119°23'3 5.2
2017-Oct-26 11:29N 33°57' W 119°26'3 5.4
2017-Oct-26 11:00N 33°59' W 119°28'4 0.4
2017-Oct-26 00:28N 34°02' W 119°31'4 6.7
2017-Oct-25 23:53N 34°06' W 119°33'2 5.6
2017-Oct-25 23:29N 34°07' W 119°35'2 3.2
2017-Oct-25 22:43N 34°10' W 119°34'1 3.5
2017-Oct-25 22:30N 34°10' W 119°35'4 3.8
2017-Oct-25 21:34N 34°14' W 119°36'1 3.8
2017-Oct-25 21:20N 34°15' W 119°37'1 3.7
2017-Oct-25 20:59N 34°16' W 119°37'2 4.2
2017-Oct-25 20:25N 34°18' W 119°38'2 4.3
2017-Oct-25 20:00N 34°20' W 119°39'3 4.8
2017-Oct-25 19:24N 34°22' W 119°40'  
2017-Oct-20 00:28N 34°24' W 119°42'2 3.2
2017-Oct-19 23:55N 34°23' W 119°43'2 4.7
2017-Oct-19 23:29N 34°23' W 119°46'3 5.4
2017-Oct-19 22:55N 34°23' W 119°49'3 5.7
2017-Oct-19 22:27N 34°23' W 119°52'2 4.9
2017-Oct-19 21:59N 34°24' W 119°55'4 6.5
2017-Oct-19 21:25N 34°23' W 119°60'3 6.2
2017-Oct-19 20:59N 34°22' W 120°03'3 6.4
2017-Oct-19 20:30N 34°22' W 120°06'3 6.2
2017-Oct-19 20:00N 34°22' W 120°10'3 5.6
2017-Oct-19 19:30N 34°22' W 120°13'3 5.7
2017-Oct-19 19:00N 34°23' W 120°17'2 4.5
2017-Oct-19 18:30N 34°23' W 120°20'1 2.4
2017-Oct-19 17:59N 34°23' W 120°21'3 5.4
2017-Oct-19 17:30N 34°24' W 120°24'3 5.4
2017-Oct-19 16:58N 34°25' W 120°27'3 5.6
2017-Oct-19 16:28N 34°26' W 120°31'3 5.8
2017-Oct-19 15:59N 34°27' W 120°33'4 6.3
2017-Oct-19 15:25N 34°30' W 120°37'3 6.4
2017-Oct-19 14:59N 34°31' W 120°39'11 5.8
2017-Oct-19 13:05N 34°38' W 120°49'1 5.2
2017-Oct-19 12:52N 34°39' W 120°50'2 5.2
2017-Oct-19 12:28N 34°41' W 120°52'5 5.1
2017-Oct-19 11:24N 34°45' W 120°56'2 5.3
2017-Oct-19 10:59N 34°47' W 120°58'3 5.6
2017-Oct-19 10:30N 34°49' W 121°00'5 6.5
2017-Oct-19 09:41N 34°53' W 121°05'1 6.3
2017-Oct-19 09:26N 34°54' W 121°06'3 6.1
2017-Oct-19 08:57N 34°56' W 121°09'3 5.7
2017-Oct-19 08:30N 34°57' W 121°11'3 5.5
2017-Oct-19 07:58N 34°59' W 121°14'135 5.6
2017-Oct-18 08:03N 36°47' W 122°53'0 6.7
2017-Oct-18 08:00N 36°48' W 122°53'4 6.6
2017-Oct-18 07:24N 36°51' W 122°52'59 6.0
2017-Oct-17 21:36N 37°48' W 122°31'1 7.6
2017-Oct-17 21:30N 37°48' W 122°31'3 0.1
2017-Oct-16 20:13N 37°51' W 122°28'1 3.9
2017-Oct-16 20:00N 37°51' W 122°28'  
Track history (hours):
 
Tides and Currents Weather Stations Pressure Air Temp Water Temp Dewpoint Dewpoint Depression Visibility Wind Speed Wind Dir Waves Ship Positions

Callsign FGD5178 (name unknown)

Last reported at 2017-Oct-26 19:39 UTC. Time now 2017-Nov-18 01:23 UTC.
Position N 33°35' W 118°54'.
Warning: this ship's position is 22 days out of date.

Length 13 m.

Type: Pleasure craft. MMSI: 227405170.

Date/timePositionNaut miles runAvg speedWind from/ knotsBaromVisibWave heightAir tempDewpointWater temp
2017-Oct-26 19:39N 33°35' W 118°54'1 5.3
2017-Oct-26 19:30N 33°35' W 118°55'3 5.4
2017-Oct-26 19:00N 33°36' W 118°58'14 5.2
2017-Oct-26 16:21N 33°43' W 119°13'2 5.1
2017-Oct-26 16:00N 33°43' W 119°15'2 3.2
2017-Oct-26 15:25N 33°45' W 119°16'1 3.4
2017-Oct-26 14:59N 33°46' W 119°17'2 3.8
2017-Oct-26 14:30N 33°48' W 119°18'2 4.0
2017-Oct-26 13:53N 33°50' W 119°19'1 3.8
2017-Oct-26 13:30N 33°51' W 119°19'2 3.3
2017-Oct-26 13:00N 33°53' W 119°19'2 3.9
2017-Oct-26 12:29N 33°54' W 119°21'2 5.0
2017-Oct-26 12:00N 33°56' W 119°23'3 5.2
2017-Oct-26 11:29N 33°57' W 119°26'3 5.4
2017-Oct-26 11:00N 33°59' W 119°28'4 0.4
2017-Oct-26 00:28N 34°02' W 119°31'4 6.7
2017-Oct-25 23:53N 34°06' W 119°33'2 5.6
2017-Oct-25 23:29N 34°07' W 119°35'2 3.2
2017-Oct-25 22:43N 34°10' W 119°34'1 3.5
2017-Oct-25 22:30N 34°10' W 119°35'4 3.8
2017-Oct-25 21:34N 34°14' W 119°36'1 3.8
2017-Oct-25 21:20N 34°15' W 119°37'1 3.7
2017-Oct-25 20:59N 34°16' W 119°37'2 4.2
2017-Oct-25 20:25N 34°18' W 119°38'2 4.3
2017-Oct-25 20:00N 34°20' W 119°39'3 4.8
2017-Oct-25 19:24N 34°22' W 119°40'  
2017-Oct-20 00:28N 34°24' W 119°42'2 3.2
2017-Oct-19 23:55N 34°23' W 119°43'2 4.7
2017-Oct-19 23:29N 34°23' W 119°46'3 5.4
2017-Oct-19 22:55N 34°23' W 119°49'3 5.7
2017-Oct-19 22:27N 34°23' W 119°52'2 4.9
2017-Oct-19 21:59N 34°24' W 119°55'4 6.5
2017-Oct-19 21:25N 34°23' W 119°60'3 6.2
2017-Oct-19 20:59N 34°22' W 120°03'3 6.4
2017-Oct-19 20:30N 34°22' W 120°06'3 6.2
2017-Oct-19 20:00N 34°22' W 120°10'3 5.6
2017-Oct-19 19:30N 34°22' W 120°13'3 5.7
2017-Oct-19 19:00N 34°23' W 120°17'2 4.5
2017-Oct-19 18:30N 34°23' W 120°20'1 2.4
2017-Oct-19 17:59N 34°23' W 120°21'3 5.4
2017-Oct-19 17:30N 34°24' W 120°24'3 5.4
2017-Oct-19 16:58N 34°25' W 120°27'3 5.6
2017-Oct-19 16:28N 34°26' W 120°31'3 5.8
2017-Oct-19 15:59N 34°27' W 120°33'4 6.3
2017-Oct-19 15:25N 34°30' W 120°37'3 6.4
2017-Oct-19 14:59N 34°31' W 120°39'11 5.8
2017-Oct-19 13:05N 34°38' W 120°49'1 5.2
2017-Oct-19 12:52N 34°39' W 120°50'2 5.2
2017-Oct-19 12:28N 34°41' W 120°52'5 5.1
2017-Oct-19 11:24N 34°45' W 120°56'2 5.3
2017-Oct-19 10:59N 34°47' W 120°58'3 5.6
2017-Oct-19 10:30N 34°49' W 121°00'5 6.5
2017-Oct-19 09:41N 34°53' W 121°05'1 6.3
2017-Oct-19 09:26N 34°54' W 121°06'3 6.1
2017-Oct-19 08:57N 34°56' W 121°09'3 5.7
2017-Oct-19 08:30N 34°57' W 121°11'3 5.5
2017-Oct-19 07:58N 34°59' W 121°14'135 5.6
2017-Oct-18 08:03N 36°47' W 122°53'0 6.7
2017-Oct-18 08:00N 36°48' W 122°53'4 6.6
2017-Oct-18 07:24N 36°51' W 122°52'59 6.0
2017-Oct-17 21:36N 37°48' W 122°31'1 7.6
2017-Oct-17 21:30N 37°48' W 122°31'3 0.1
2017-Oct-16 20:13N 37°51' W 122°28'1 3.9
2017-Oct-16 20:00N 37°51' W 122°28'  

Dump ship's entire track history